KEAR

Kearney Regional Airport

Kearney, Nebraska, USA
METAR KEAR 140457Z AUTO 23007KT 10SM CLR 00/M06 A3039 RMK AO2 SLP309 T00001061 FZRANO
Observed Flight Rules
Nov-14 @ 04:57 UTC (37 minutes ago) Visual Flight Rules
Wind Visibility Clouds
230° at 7 knots 10 miles
  • Clear skies
Temperatures Readings
Current 0°C / 32°F
Dewpoint -6°C / 21°F
Humidity 64%
Altimeter 30.39" Hg
Pressure 1030.9 hPa
Elevation 649
METAR KEAR 140457Z AUTO 23007KT 10SM CLR 00/M06 A3039 RMK AO2 SLP309 T00001061 FZRANO
Observed Flight Rules
Nov-14 @ 04:57 UTC
(37 minutes ago)
VFR
Wind Visibility
230° at 7 knots 10 miles
Clouds
  • Clear skies
Temperature Dewpoint
0°C / 32°F -6°C / 21°F
Humidity Altimeter Pressure
64% 30.39" Hg 1030.9 hPa